This is the latest recevied weather packets stored in our database for station/object OE-11372. If no packets are shown the sender has not sent any weather packets the latest 10 day(s).
| Time | Temp. | Humidity | Pressure | Rain* | Wind** | Luminosity | Snow |
|---|---|---|---|---|---|---|---|
| 1787739075 | 18.33° C | 74% | 854.8 hPa | 0 mm | - | 783 W/m² | - |
| 1787738703 | 17.78° C | 74% | 854.7 hPa | 0 mm | - | 766 W/m² | - |
| 1787738103 | 17.22° C | 74% | 854.7 hPa | 0 mm | - | 750 W/m² | - |
| 1787737276 | 17.22° C | 76% | 854.8 hPa | 0 mm | - | 700 W/m² | - |
| 1787736902 | 17.22° C | 77% | 854.9 hPa | 0 mm | - | 634 W/m² | - |
| 1787736303 | 17.22° C | 79% | 854.9 hPa | 0 mm | - | 733 W/m² | - |
| 1787735476 | 16.67° C | 81% | 854.7 hPa | 0 mm | - | 684 W/m² | - |
| 1787735103 | 16.11° C | 83% | 854.7 hPa | 0 mm | - | 675 W/m² | - |
| 1787733676 | 16.67° C | 84% | 854.6 hPa | 0 mm | - | 626 W/m² | - |
| 1787733303 | 15° C | 87% | 854.4 hPa | 0 mm | - | 601 W/m² | - |
| 1787732702 | 15° C | 88% | 854.5 hPa | 0 mm | - | 577 W/m² | - |
| 1787731876 | 14.44° C | 86% | 854.3 hPa | 0 mm | - | 552 W/m² | - |
| 1787731503 | 14.44° C | 87% | 854.2 hPa | 0 mm | - | 544 W/m² | - |
| 1787730903 | 13.89° C | 88% | 854.2 hPa | 0 mm | - | 577 W/m² | - |
| 1787730076 | 13.33° C | 89% | 854.1 hPa | 0 mm | - | 544 W/m² | - |
| 1787729703 | 12.78° C | 91% | 853.9 hPa | 0 mm | - | 494 W/m² | - |
| 1787729103 | 12.78° C | 94% | 853.9 hPa | 0 mm | - | 437 W/m² | - |
| 1787728275 | 12.22° C | 94% | 853.8 hPa | 0 mm | - | 412 W/m² | - |
| 1787727903 | 12.22° C | 95% | 853.8 hPa | 0 mm | - | 247 W/m² | - |
| 1787727303 | 12.22° C | 96% | 853.9 hPa | 0 mm | - | 222 W/m² | - |
| 1787726714 | 11.67° C | 96% | 853.9 hPa | 0 mm | - | 165 W/m² | - |
| 1787726103 | 11.67° C | 96% | 853.8 hPa | 0 mm | - | 115 W/m² | - |
| 1787725503 | 11.67° C | 97% | 853.8 hPa | 0 mm | - | 91 W/m² | - |
| 1787724675 | 11.11° C | 97% | 853.7 hPa | 0 mm | - | 91 W/m² | - |
| 1787724303 | 10.56° C | 97% | 853.6 hPa | 0 mm | - | 91 W/m² | - |
* Rain latest hour (hover to see other rain measurements)
** Current wind speed in m/s (hover to see current wind gust speed)